Time;durP1;ratioP1;P1;durP2;ratioP2;P2;SDS_P1;SDS_P2;PMS_P1;PMS_P2;Temp;Humidity;BMP_temperature;BMP_pressure;BME280_temperature;BME280_humidity;BME280_pressure;Samples;Min_cycle;Max_cycle;Signal;HPM_P1;HPM_P2
2022/12/24 00:02:27;;;;;;;;;;;;;;;8.37;100.00;100480.56;5291129;28;19920;-66
2022/12/24 00:04:58;;;;;;;;;;;;;;;8.35;100.00;100479.84;5267353;28;20328;-66
2022/12/24 00:07:30;;;;;;;;;;;;;;;8.33;100.00;100479.09;5291954;28;19927;-66
2022/12/24 00:10:02;;;;;;;;;;;;;;;8.33;100.00;100492.41;5287430;28;19924;-66
2022/12/24 00:12:33;;;;;;;;;;;;;;;8.32;100.00;100496.03;5282958;28;19920;-66
2022/12/24 00:15:05;;;;;;;;;;;;;;;8.33;100.00;100500.38;5289023;28;20366;-66
2022/12/24 00:17:36;;;;;;;;;;;;;;;8.35;100.00;100497.63;5281711;28;19970;-65
2022/12/24 00:20:08;;;;;;;;;;;;;;;8.35;100.00;100493.13;5284316;28;20019;-65
2022/12/24 00:22:39;;;;;;;;;;;;;;;8.34;100.00;100502.09;5293084;28;19977;-65
2022/12/24 00:25:10;;;;;;;;;;;;;;;8.32;100.00;100508.44;5291166;28;20015;-66
2022/12/24 00:27:42;;;;;;;;;;;;;;;8.31;100.00;100504.13;5296181;28;19976;-65
2022/12/24 00:30:13;;;;;;;;;;;;;;;8.30;100.00;100491.78;5281114;28;19995;-65
2022/12/24 00:32:44;;;;;;;;;;;;;;;8.32;100.00;100506.66;5287892;28;19924;-65
2022/12/24 00:35:15;;;;;;;;;;;;;;;8.35;100.00;100518.88;5278940;28;19920;-66
2022/12/24 00:37:47;;;;;;;;;;;;;;;8.35;100.00;100514.41;5270665;28;19931;-66
2022/12/24 00:40:18;;;;;;;;;;;;;;;8.35;100.00;100511.75;5295747;28;20497;-66
2022/12/24 00:42:49;;;;;;;;;;;;;;;8.37;100.00;100522.28;5293446;28;19927;-66
2022/12/24 00:45:20;;;;;;;;;;;;;;;8.37;100.00;100531.09;5292785;28;20019;-66
2022/12/24 00:47:52;;;;;;;;;;;;;;;8.39;100.00;100539.81;5281983;28;20300;-65
2022/12/24 00:50:23;;;;;;;;;;;;;;;8.37;100.00;100541.72;5276503;28;19916;-66
2022/12/24 00:52:55;;;;;;;;;;;;;;;8.36;100.00;100548.00;5275196;28;20340;-66
2022/12/24 00:55:26;;;;;;;;;;;;;;;8.36;100.00;100547.13;5277642;28;19928;-66
2022/12/24 00:57:57;;;;;;;;;;;;;;;8.37;100.00;100554.16;5278473;28;20514;-66
2022/12/24 01:00:28;;;;;;;;;;;;;;;8.35;100.00;100554.28;5275313;28;20023;-66
2022/12/24 01:03:00;;;;;;;;;;;;;;;8.35;100.00;100556.94;5277377;28;19925;-66
2022/12/24 01:05:31;;;;;;;;;;;;;;;8.35;100.00;100567.56;5277582;28;19916;-66
2022/12/24 01:08:02;;;;;;;;;;;;;;;8.34;100.00;100565.00;5271601;28;20038;-66
2022/12/24 01:10:33;;;;;;;;;;;;;;;8.30;100.00;100564.38;5275856;28;19923;-66
2022/12/24 01:13:04;;;;;;;;;;;;;;;8.30;100.00;100560.88;5271459;28;19924;-66
2022/12/24 01:15:36;;;;;;;;;;;;;;;8.30;100.00;100560.88;5274739;28;19920;-66
2022/12/24 01:18:07;;;;;;;;;;;;;;;8.29;100.00;100564.50;5274078;28;20715;-66
2022/12/24 01:20:38;;;;;;;;;;;;;;;8.27;100.00;100567.28;5274248;28;19924;-66
2022/12/24 01:23:09;;;;;;;;;;;;;;;8.24;100.00;100578.09;5276823;28;19916;-66
2022/12/24 01:25:40;;;;;;;;;;;;;;;8.21;100.00;100570.38;5278590;28;19967;-66
2022/12/24 01:28:12;;;;;;;;;;;;;;;8.20;100.00;100584.59;5275754;28;19985;-66
2022/12/24 01:30:43;;;;;;;;;;;;;;;8.16;100.00;100589.28;5277564;28;20347;-67
2022/12/24 01:33:14;;;;;;;;;;;;;;;8.14;100.00;100595.69;5273889;28;19920;-67
2022/12/24 01:35:45;;;;;;;;;;;;;;;8.12;100.00;100592.28;5272204;28;19935;-66
2022/12/24 01:38:16;;;;;;;;;;;;;;;8.09;100.00;100592.47;5271058;28;20491;-67
2022/12/24 01:43:37;;;;;;;;;;;;;;;8.01;100.00;100599.19;5272044;28;19920;-66
2022/12/24 01:46:15;;;;;;;;;;;;;;;7.98;100.00;100596.75;5269178;28;19931;-67
2022/12/24 01:48:53;;;;;;;;;;;;;;;7.96;100.00;100611.94;5272688;28;19967;-66
2022/12/24 01:51:36;;;;;;;;;;;;;;;7.94;100.00;100610.34;5270597;28;19924;-66
2022/12/24 01:54:34;;;;;;;;;;;;;;;7.95;100.00;100606.75;5276206;28;20014;-67
2022/12/24 01:57:08;;;;;;;;;;;;;;;7.96;100.00;100611.09;5262668;28;19967;-66
2022/12/24 01:59:42;;;;;;;;;;;;;;;7.96;100.00;100609.28;5277072;28;20286;-66
2022/12/24 02:02:14;;;;;;;;;;;;;;;7.98;100.00;100606.53;5274762;28;19928;-66
2022/12/24 02:04:48;;;;;;;;;;;;;;;7.97;100.00;100621.59;5279899;28;19935;-66
2022/12/24 02:07:19;;;;;;;;;;;;;;;7.97;100.00;100620.75;5276304;28;19920;-66
2022/12/24 02:09:52;;;;;;;;;;;;;;;7.98;100.00;100627.78;5271822;28;19916;-67
2022/12/24 02:12:25;;;;;;;;;;;;;;;7.99;100.00;100629.47;5274255;28;19924;-66
2022/12/24 02:14:56;;;;;;;;;;;;;;;8.00;100.00;100631.19;5271261;28;19927;-66
2022/12/24 02:17:46;;;;;;;;;;;;;;;8.02;100.00;100631.94;5278570;28;20406;-66
2022/12/24 02:20:36;;;;;;;;;;;;;;;8.04;100.00;100643.31;5271201;28;19928;-66
2022/12/24 02:23:07;;;;;;;;;;;;;;;8.05;100.00;100643.19;5274824;28;19955;-66
2022/12/24 02:25:44;;;;;;;;;;;;;;;8.06;100.00;100636.06;5277672;28;21415;-66
2022/12/24 02:28:34;;;;;;;;;;;;;;;8.10;100.00;100640.22;5276814;28;19916;-66
2022/12/24 02:31:12;;;;;;;;;;;;;;;8.12;100.00;100643.59;5273637;28;19924;-66
2022/12/24 02:33:51;;;;;;;;;;;;;;;8.15;100.00;100647.84;5273211;28;19920;-66
2022/12/24 02:36:27;;;;;;;;;;;;;;;8.18;100.00;100653.81;5275424;28;20014;-66
2022/12/24 02:39:00;;;;;;;;;;;;;;;8.21;100.00;100648.28;5274579;28;21391;-66
2022/12/24 02:44:27;;;;;;;;;;;;;;;8.25;100.00;100654.25;5276427;28;19924;-66
2022/12/24 02:46:59;;;;;;;;;;;;;;;8.27;100.00;100652.31;5280463;28;20451;-66
2022/12/24 02:49:30;;;;;;;;;;;;;;;8.28;100.00;100658.50;5278523;28;20011;-66
2022/12/24 02:52:01;;;;;;;;;;;;;;;8.28;100.00;100650.50;5277555;28;19935;-66
2022/12/24 02:54:33;;;;;;;;;;;;;;;8.29;100.00;100657.53;5276380;28;20394;-66
2022/12/24 02:57:04;;;;;;;;;;;;;;;8.29;100.00;100655.72;5282577;28;19928;-66
2022/12/24 02:59:44;;;;;;;;;;;;;;;8.29;100.00;100658.38;5275720;28;20010;-66
2022/12/24 03:02:34;;;;;;;;;;;;;;;8.27;100.00;100652.31;5273241;28;20339;-67
2022/12/24 03:05:24;;;;;;;;;;;;;;;8.29;100.00;100658.38;5277213;28;19925;-67
2022/12/24 03:08:00;;;;;;;;;;;;;;;8.32;100.00;100662.63;5277545;28;20010;-66
2022/12/24 03:10:50;;;;;;;;;;;;;;;8.33;100.00;100665.19;5274901;28;20025;-66
2022/12/24 03:13:22;;;;;;;;;;;;;;;8.34;100.00;100672.22;5272887;28;19926;-66
2022/12/24 03:15:54;;;;;;;;;;;;;;;8.36;100.00;100670.31;5272215;28;19919;-67
2022/12/24 03:18:26;;;;;;;;;;;;;;;8.38;100.00;100665.72;5285161;28;19939;-67
2022/12/24 03:21:05;;;;;;;;;;;;;;;8.41;100.00;100667.31;5268983;28;20001;-66
2022/12/24 03:23:36;;;;;;;;;;;;;;;8.44;100.00;100665.31;5275638;28;19920;-66
2022/12/24 03:26:09;;;;;;;;;;;;;;;8.45;100.00;100674.13;5270107;28;19928;-66
2022/12/24 03:28:41;;;;;;;;;;;;;;;8.47;100.00;100671.38;5270049;28;19920;-69
2022/12/24 03:31:13;;;;;;;;;;;;;;;8.49;100.00;100666.78;5273978;28;19992;-67
2022/12/24 03:33:44;;;;;;;;;;;;;;;8.50;100.00;100676.50;5273913;28;19924;-66
2022/12/24 03:36:15;;;;;;;;;;;;;;;8.50;100.00;100674.66;5272368;28;19942;-66
2022/12/24 03:38:47;;;;;;;;;;;;;;;8.53;100.00;100681.56;5276325;28;20001;-66
2022/12/24 03:41:18;;;;;;;;;;;;;;;8.55;100.00;100684.97;5277795;28;20418;-66
2022/12/24 03:43:49;;;;;;;;;;;;;;;8.57;100.00;100677.72;5286198;28;19999;-66
2022/12/24 03:46:20;;;;;;;;;;;;;;;8.58;100.00;100680.28;5276145;28;19948;-66
2022/12/24 03:48:51;;;;;;;;;;;;;;;8.59;100.00;100691.78;5283174;28;19921;-66
2022/12/24 03:51:23;;;;;;;;;;;;;;;8.59;100.00;100692.63;5278737;28;19924;-66
2022/12/24 03:53:55;;;;;;;;;;;;;;;8.60;100.00;100686.34;5277238;28;19928;-66
2022/12/24 03:56:27;;;;;;;;;;;;;;;8.63;100.00;100686.13;5282765;28;19920;-67
2022/12/24 03:58:58;;;;;;;;;;;;;;;8.67;100.00;100693.88;5281013;28;20021;-66
2022/12/24 04:01:29;;;;;;;;;;;;;;;8.68;100.00;100698.25;5266148;28;20322;-66
2022/12/24 04:04:00;;;;;;;;;;;;;;;8.69;100.00;100694.66;5280433;28;19985;-66
2022/12/24 04:06:32;;;;;;;;;;;;;;;8.67;100.00;100694.75;5281231;28;19920;-66
2022/12/24 04:09:04;;;;;;;;;;;;;;;8.67;100.00;100701.88;5289820;28;19924;-66
2022/12/24 04:11:37;;;;;;;;;;;;;;;8.67;100.00;100700.06;5286403;28;19927;-68
2022/12/24 04:14:19;;;;;;;;;;;;;;;8.66;100.00;100690.38;5267849;28;19982;-67
2022/12/24 04:16:50;;;;;;;;;;;;;;;8.67;100.00;100707.19;5282975;28;20015;-66
2022/12/24 04:19:21;;;;;;;;;;;;;;;8.66;100.00;100703.69;5288207;28;19930;-65
2022/12/24 04:21:52;;;;;;;;;;;;;;;8.68;100.00;100704.41;5284193;28;20003;-65
2022/12/24 04:24:24;;;;;;;;;;;;;;;8.69;100.00;100702.63;5299341;28;19924;-65
2022/12/24 04:26:55;;;;;;;;;;;;;;;8.69;100.00;100727.41;5283575;28;19954;-65
2022/12/24 04:29:26;;;;;;;;;;;;;;;8.68;100.00;100717.72;5293759;28;20267;-65
2022/12/24 04:31:57;;;;;;;;;;;;;;;8.69;100.00;100723.91;5279806;28;19924;-65
2022/12/24 04:34:28;;;;;;;;;;;;;;;8.68;100.00;100723.03;5286426;28;19927;-66
2022/12/24 04:36:59;;;;;;;;;;;;;;;8.67;100.00;100723.13;5283550;28;20395;-66
2022/12/24 04:39:31;;;;;;;;;;;;;;;8.67;100.00;100724.00;5284973;28;19924;-65
2022/12/24 04:42:02;;;;;;;;;;;;;;;8.66;100.00;100719.63;5267707;28;19963;-65
2022/12/24 04:44:33;;;;;;;;;;;;;;;8.65;100.00;100725.94;5286981;28;19942;-66
2022/12/24 04:47:04;;;;;;;;;;;;;;;8.63;100.00;100719.88;5296799;28;19924;-65
2022/12/24 04:49:35;;;;;;;;;;;;;;;8.61;100.00;100724.41;5290178;28;19974;-66
2022/12/24 04:52:07;;;;;;;;;;;;;;;8.58;100.00;100714.84;5291984;28;19927;-66
2022/12/24 04:54:38;;;;;;;;;;;;;;;8.57;100.00;100713.19;5282605;28;20401;-65
2022/12/24 04:57:09;;;;;;;;;;;;;;;8.56;100.00;100723.91;5278933;28;20398;-65
2022/12/24 04:59:40;;;;;;;;;;;;;;;8.54;100.00;100734.66;5280388;28;20465;-65
2022/12/24 05:02:12;;;;;;;;;;;;;;;8.54;100.00;100728.50;5278606;28;19920;-66
2022/12/24 05:04:43;;;;;;;;;;;;;;;8.53;100.00;100732.94;5287059;28;20434;-65
2022/12/24 05:07:15;;;;;;;;;;;;;;;8.54;100.00;100736.47;5274940;28;19935;-66
2022/12/24 05:09:47;;;;;;;;;;;;;;;8.54;100.00;100737.31;5269097;28;19966;-65
2022/12/24 05:12:18;;;;;;;;;;;;;;;8.56;100.00;100742.53;5269281;28;20376;-65
2022/12/24 05:14:49;;;;;;;;;;;;;;;8.56;100.00;100743.38;5274833;28;20339;-65
2022/12/24 05:17:21;;;;;;;;;;;;;;;8.56;100.00;100743.38;5268369;28;19928;-66
2022/12/24 05:19:52;;;;;;;;;;;;;;;8.57;100.00;100738.91;5272031;28;20303;-65
2022/12/24 05:28:03;;;;;;;;;;;;;;;8.55;100.00;100732.84;5272892;28;19963;-66
2022/12/24 05:30:34;;;;;;;;;;;;;;;8.54;100.00;100734.66;5273778;28;20006;-65
2022/12/24 05:33:06;;;;;;;;;;;;;;;8.54;100.00;100736.47;5272897;28;19916;-65
2022/12/24 05:35:37;;;;;;;;;;;;;;;8.52;100.00;100728.59;5273626;28;19924;-65
2022/12/24 05:38:08;;;;;;;;;;;;;;;8.49;100.00;100738.59;5273464;28;19935;-66
2022/12/24 05:40:39;;;;;;;;;;;;;;;8.49;100.00;100738.59;5272341;28;19931;-65
2022/12/24 05:43:10;;;;;;;;;;;;;;;8.48;100.00;100736.91;5273535;28;19924;-66
2022/12/24 05:45:42;;;;;;;;;;;;;;;8.48;100.00;100747.53;5271947;28;20281;-65
2022/12/24 05:48:13;;;;;;;;;;;;;;;8.44;100.00;100752.22;5271140;28;19974;-65
2022/12/24 05:50:44;;;;;;;;;;;;;;;8.40;100.00;100767.50;5275171;28;19924;-65
2022/12/24 05:53:15;;;;;;;;;;;;;;;8.39;100.00;100776.41;5272597;28;20225;-66
2022/12/24 05:55:47;;;;;;;;;;;;;;;8.40;100.00;100777.28;5277299;28;19960;-65
2022/12/24 05:58:18;;;;;;;;;;;;;;;8.39;100.00;100775.56;5274405;28;20361;-66
2022/12/24 06:00:51;;;;;;;;;;;;;;;8.40;100.00;100772.81;5274461;28;20018;-65
2022/12/24 06:03:22;;;;;;;;;;;;;;;8.39;100.00;100778.22;5262583;28;20377;-66
2022/12/24 06:05:58;;;;;;;;;;;;;;;8.39;100.00;100786.19;5280774;28;20345;-66
2022/12/24 06:08:30;;;;;;;;;;;;;;;8.37;100.00;100772.16;5272148;28;20341;-66
2022/12/24 06:11:02;;;;;;;;;;;;;;;8.36;100.00;100776.63;5284492;28;19925;-66
2022/12/24 06:13:34;;;;;;;;;;;;;;;8.37;100.00;100780.13;5275423;28;19926;-65
2022/12/24 06:16:06;;;;;;;;;;;;;;;8.36;100.00;100775.75;5275414;28;19916;-66
2022/12/24 06:18:37;;;;;;;;;;;;;;;8.34;100.00;100773.22;5273938;28;20685;-67
2022/12/24 06:21:09;;;;;;;;;;;;;;;8.33;100.00;100784.81;5280975;28;19924;-66
2022/12/24 06:23:41;;;;;;;;;;;;;;;8.32;100.00;100791.09;5282143;28;19920;-66
2022/12/24 06:26:14;;;;;;;;;;;;;;;8.31;100.00;100785.88;5281812;28;20400;-66
2022/12/24 06:28:46;;;;;;;;;;;;;;;8.28;100.00;100789.56;5292224;28;20240;-66
2022/12/24 06:31:19;;;;;;;;;;;;;;;8.26;100.00;100796.81;5283190;28;19954;-66
2022/12/24 06:33:51;;;;;;;;;;;;;;;8.23;100.00;100789.06;5278958;28;19947;-66
2022/12/24 06:36:23;;;;;;;;;;;;;;;8.22;100.00;100812.09;5273178;28;20010;-66
2022/12/24 06:38:54;;;;;;;;;;;;;;;8.19;100.00;100812.31;5271903;28;20381;-66
2022/12/24 06:41:25;;;;;;;;;;;;;;;8.18;100.00;100809.75;5275818;28;19924;-66
2022/12/24 06:43:57;;;;;;;;;;;;;;;8.17;100.00;100810.72;5274488;28;19920;-66
2022/12/24 06:46:28;;;;;;;;;;;;;;;8.15;100.00;100808.19;5269177;28;19921;-67
2022/12/24 06:48:59;;;;;;;;;;;;;;;8.14;100.00;100818.91;5274554;28;20387;-67
2022/12/24 06:51:30;;;;;;;;;;;;;;;8.12;100.00;100810.19;5272621;28;19920;-67
2022/12/24 06:54:02;;;;;;;;;;;;;;;8.13;100.00;100815.41;5261487;28;19924;-67
2022/12/24 06:56:33;;;;;;;;;;;;;;;8.14;100.00;100825.06;5270484;28;19920;-67
2022/12/24 06:59:04;;;;;;;;;;;;;;;8.15;100.00;100823.25;5269707;28;19920;-66
2022/12/24 07:01:35;;;;;;;;;;;;;;;8.18;100.00;100828.38;5272029;28;19928;-67
2022/12/24 07:04:07;;;;;;;;;;;;;;;8.18;100.00;100833.69;5272752;28;20385;-67
2022/12/24 07:06:38;;;;;;;;;;;;;;;8.17;100.00;100829.31;5271516;28;20464;-66
2022/12/24 07:09:11;;;;;;;;;;;;;;;8.14;100.00;100827.72;5276289;28;20029;-67
2022/12/24 07:11:42;;;;;;;;;;;;;;;8.12;100.00;100826.97;5270080;28;19920;-67
2022/12/24 07:14:14;;;;;;;;;;;;;;;8.09;100.00;100842.25;5275591;28;20013;-68
2022/12/24 07:16:45;;;;;;;;;;;;;;;8.05;100.00;100837.16;5268264;28;20055;-67
2022/12/24 07:19:16;;;;;;;;;;;;;;;8.04;100.00;100839.91;5269353;28;19923;-67
2022/12/24 07:21:48;;;;;;;;;;;;;;;8.01;100.00;100832.97;5267478;28;19985;-67
2022/12/24 07:24:20;;;;;;;;;;;;;;;8.01;100.00;100838.28;5273879;28;19915;-67
2022/12/24 07:26:51;;;;;;;;;;;;;;;8.00;100.00;100844.59;5268784;28;20845;-67
2022/12/24 07:29:22;;;;;;;;;;;;;;;7.97;100.00;100846.59;5274422;28;19935;-67
2022/12/24 07:31:53;;;;;;;;;;;;;;;7.95;100.00;100846.69;5270818;28;20360;-67
2022/12/24 07:34:25;;;;;;;;;;;;;;;7.94;100.00;100857.41;5272607;28;19931;-67
2022/12/24 07:36:56;;;;;;;;;;;;;;;7.93;100.00;100866.34;5270268;28;19923;-69
2022/12/24 07:39:27;;;;;;;;;;;;;;;7.90;100.00;100870.06;5282823;28;20313;-67
2022/12/24 07:41:58;;;;;;;;;;;;;;;7.89;100.00;100862.19;5264279;28;19916;-66
2022/12/24 07:44:29;;;;;;;;;;;;;;;7.88;100.00;100866.66;5282277;28;19916;-67
2022/12/24 07:47:01;;;;;;;;;;;;;;;7.88;100.00;100871.09;5276013;28;19930;-67
2022/12/24 07:49:32;;;;;;;;;;;;;;;7.86;100.00;100873.84;5287456;28;20250;-67
2022/12/24 07:52:03;;;;;;;;;;;;;;;7.84;100.00;100878.41;5278184;28;19924;-67
2022/12/24 07:54:34;;;;;;;;;;;;;;;7.82;100.00;100888.28;5276717;28;19970;-66
2022/12/24 07:57:06;;;;;;;;;;;;;;;7.80;100.00;100885.72;5277477;28;20010;-67
2022/12/24 07:59:38;;;;;;;;;;;;;;;7.81;100.00;100895.41;5275754;28;19927;-67
2022/12/24 08:02:12;;;;;;;;;;;;;;;7.82;100.00;100912.19;5278083;28;19927;-67
2022/12/24 08:04:43;;;;;;;;;;;;;;;7.85;100.00;100912.00;5281354;28;20595;-66
2022/12/24 08:07:14;;;;;;;;;;;;;;;7.90;100.00;100909.03;5272831;28;19946;-66
2022/12/24 08:09:45;;;;;;;;;;;;;;;7.93;100.00;100916.81;5283395;28;20447;-66
2022/12/24 08:12:17;;;;;;;;;;;;;;;7.94;100.00;100919.38;5276750;28;19942;-66
2022/12/24 08:14:48;;;;;;;;;;;;;;;7.94;100.00;100924.69;5273675;28;21680;-66
2022/12/24 08:17:19;;;;;;;;;;;;;;;7.93;100.00;100933.59;5272056;28;19964;-66
2022/12/24 08:19:50;;;;;;;;;;;;;;;7.94;100.00;100931.78;5277402;28;20354;-66
2022/12/24 08:22:21;;;;;;;;;;;;;;;7.95;100.00;100931.69;5273721;28;19920;-67
2022/12/24 08:24:52;;;;;;;;;;;;;;;7.95;100.00;100931.69;5275471;28;19931;-66
2022/12/24 08:27:24;;;;;;;;;;;;;;;7.95;100.00;100939.66;5277648;28;19924;-67
2022/12/24 08:29:55;;;;;;;;;;;;;;;7.96;100.00;100949.34;5277919;28;20493;-67
2022/12/24 08:32:26;;;;;;;;;;;;;;;8.00;100.00;100950.03;5279123;28;19924;-67
2022/12/24 08:34:57;;;;;;;;;;;;;;;8.02;100.00;100956.94;5266148;28;19955;-67
2022/12/24 08:37:28;;;;;;;;;;;;;;;8.05;100.00;100959.41;5291717;28;19923;-67
2022/12/24 08:40:00;;;;;;;;;;;;;;;8.08;100.00;100952.19;5282876;28;20409;-67
2022/12/24 08:42:31;;;;;;;;;;;;;;;8.09;100.00;100959.19;5278650;28;19947;-67
2022/12/24 08:45:02;;;;;;;;;;;;;;;8.10;100.00;100955.59;5282355;28;19970;-67
2022/12/24 08:47:33;;;;;;;;;;;;;;;8.11;100.00;100957.28;5284747;28;19923;-67
2022/12/24 08:50:05;;;;;;;;;;;;;;;8.13;100.00;100950.06;5283280;28;20457;-67
2022/12/24 08:52:36;;;;;;;;;;;;;;;8.16;100.00;100965.81;5270645;28;19985;-67
2022/12/24 08:55:08;;;;;;;;;;;;;;;8.16;100.00;100974.63;5282821;28;19925;-67
2022/12/24 08:57:39;;;;;;;;;;;;;;;8.17;100.00;100978.13;5277178;28;19924;-67
2022/12/24 09:00:11;;;;;;;;;;;;;;;8.16;100.00;100976.44;5284954;28;19928;-66
2022/12/24 09:02:42;;;;;;;;;;;;;;;8.17;100.00;100978.13;5278122;28;19931;-67
2022/12/24 09:05:13;;;;;;;;;;;;;;;8.16;100.00;100976.44;5282490;28;19994;-67
2022/12/24 09:07:44;;;;;;;;;;;;;;;8.15;100.00;100982.69;5283416;28;19920;-67
2022/12/24 09:10:16;;;;;;;;;;;;;;;8.12;100.00;100989.09;5284845;28;20593;-67
2022/12/24 09:12:47;;;;;;;;;;;;;;;8.12;100.00;100998.88;5284764;28;19923;-67
2022/12/24 09:15:18;;;;;;;;;;;;;;;8.10;100.00;100998.97;5282488;28;19916;-67
2022/12/24 09:17:49;;;;;;;;;;;;;;;8.11;100.00;100997.16;5287442;28;20439;-67
2022/12/24 09:20:20;;;;;;;;;;;;;;;8.12;100.00;101009.50;5283795;28;19921;-67
2022/12/24 09:22:52;;;;;;;;;;;;;;;8.14;100.00;101015.56;5282095;28;20378;-67
2022/12/24 09:25:23;;;;;;;;;;;;;;;8.16;100.00;101029.59;5282936;28;20139;-67
2022/12/24 09:27:54;;;;;;;;;;;;;;;8.17;100.00;101028.63;5284576;28;19956;-67
2022/12/24 09:30:25;;;;;;;;;;;;;;;8.19;100.00;101032.94;5278469;28;19974;-67
2022/12/24 09:32:56;;;;;;;;;;;;;;;8.25;100.00;101032.53;5281741;28;20277;-67
2022/12/24 09:35:27;;;;;;;;;;;;;;;8.31;100.00;101030.44;5285141;28;19922;-67
2022/12/24 09:38:02;;;;;;;;;;;;;;;8.35;100.00;101027.47;5283663;28;19924;-67
2022/12/24 09:40:38;;;;;;;;;;;;;;;8.38;100.00;101035.25;5289057;28;20374;-66
2022/12/24 09:43:22;;;;;;;;;;;;;;;8.41;100.00;101036.88;5292925;28;20213;-67
2022/12/24 09:46:02;;;;;;;;;;;;;;;8.43;100.00;101043.81;5282522;28;19931;-67
2022/12/24 09:48:36;;;;;;;;;;;;;;;8.47;100.00;101043.63;5283066;28;19924;-67
2022/12/24 09:51:15;;;;;;;;;;;;;;;8.50;100.00;101046.09;5290816;28;20007;-67
2022/12/24 09:53:46;;;;;;;;;;;;;;;8.51;100.00;101050.44;5283544;28;19924;-67
2022/12/24 09:56:20;;;;;;;;;;;;;;;8.51;100.00;101059.28;5287978;28;19926;-67
2022/12/24 09:58:58;;;;;;;;;;;;;;;8.52;100.00;101055.66;5282807;28;19981;-67
2022/12/24 10:01:31;;;;;;;;;;;;;;;8.51;100.00;101061.09;5285735;28;19928;-68
2022/12/24 10:04:11;;;;;;;;;;;;;;;8.52;100.00;101073.44;5277152;28;19920;-67
2022/12/24 10:06:52;;;;;;;;;;;;;;;8.52;100.00;101062.81;5282430;28;19924;-67
2022/12/24 10:09:47;;;;;;;;;;;;;;;8.52;100.00;101068.13;5288767;28;19924;-67
2022/12/24 10:12:37;;;;;;;;;;;;;;;8.53;100.00;101073.31;5289859;28;19924;-67
2022/12/24 10:15:14;;;;;;;;;;;;;;;8.55;100.00;101073.22;5281101;28;20567;-66
2022/12/24 10:17:45;;;;;;;;;;;;;;;8.56;100.00;101072.28;5279456;28;19930;-66
2022/12/24 10:20:19;;;;;;;;;;;;;;;8.56;100.00;101072.28;5287101;28;19920;-67
2022/12/24 10:22:50;;;;;;;;;;;;;;;8.56;100.00;101069.63;5277426;28;19920;-66
2022/12/24 10:25:24;;;;;;;;;;;;;;;8.57;100.00;101063.34;5286510;28;20294;-67
2022/12/24 10:27:58;;;;;;;;;;;;;;;8.59;100.00;101064.97;5278244;28;20615;-66
2022/12/24 10:30:29;;;;;;;;;;;;;;;8.62;100.00;101066.56;5279760;28;20559;-67
2022/12/24 10:33:01;;;;;;;;;;;;;;;8.64;100.00;101064.66;5290465;28;19930;-67
2022/12/24 10:35:36;;;;;;;;;;;;;;;8.65;100.00;101058.41;5267029;28;19924;-67
2022/12/24 10:38:08;;;;;;;;;;;;;;;8.67;100.00;101067.13;5281643;28;19920;-67
2022/12/24 10:40:43;;;;;;;;;;;;;;;8.68;100.00;101071.47;5281390;28;19928;-67
2022/12/24 10:43:16;;;;;;;;;;;;;;;8.67;100.00;101077.78;5263056;28;20386;-67
2022/12/24 10:45:53;;;;;;;;;;;;;;;8.66;100.00;101073.38;5285322;28;21830;-67
2022/12/24 10:48:27;;;;;;;;;;;;;;;8.65;100.00;101071.69;5274050;28;19923;-67
2022/12/24 10:51:04;;;;;;;;;;;;;;;8.64;100.00;101072.63;5290930;28;19924;-66
2022/12/24 10:53:39;;;;;;;;;;;;;;;8.64;100.00;101072.63;5284107;28;21088;-67
2022/12/24 10:56:11;;;;;;;;;;;;;;;8.66;100.00;101077.88;5283856;28;19931;-67
2022/12/24 10:58:50;;;;;;;;;;;;;;;8.69;100.00;101081.19;5287595;28;19958;-67
2022/12/24 11:01:41;;;;;;;;;;;;;;;8.76;100.00;101082.50;5276699;28;19925;-68
2022/12/24 11:04:14;;;;;;;;;;;;;;;8.81;100.00;101084.84;5282562;28;19927;-67
2022/12/24 11:07:05;;;;;;;;;;;;;;;8.86;100.00;101081.88;5283280;28;19956;-67
2022/12/24 11:09:42;;;;;;;;;;;;;;;8.90;100.00;101086.03;5284601;28;19931;-67
2022/12/24 11:12:17;;;;;;;;;;;;;;;8.94;100.00;101084.91;5280994;28;19923;-67
2022/12/24 11:14:58;;;;;;;;;;;;;;;8.97;100.00;101082.88;5284155;28;20405;-67
2022/12/24 11:17:29;;;;;;;;;;;;;;;9.01;100.00;101086.19;5277468;28;19920;-67
2022/12/24 11:20:02;;;;;;;;;;;;;;;9.05;100.00;101081.53;5285464;28;19931;-67
2022/12/24 11:22:34;;;;;;;;;;;;;;;9.08;100.00;101084.84;5283264;28;19928;-67
2022/12/24 11:25:13;;;;;;;;;;;;;;;9.11;100.00;101092.63;5275844;28;19968;-67
2022/12/24 11:27:48;;;;;;;;;;;;;;;9.14;100.00;101084.41;5280120;28;19961;-67
2022/12/24 11:30:25;;;;;;;;;;;;;;;9.19;100.00;101102.75;5290176;28;19912;-67
2022/12/24 11:32:59;;;;;;;;;;;;;;;9.23;100.00;101090.94;5280671;28;20402;-67
2022/12/24 11:35:31;;;;;;;;;;;;;;;9.27;100.00;101096.94;5281085;28;20414;-67
2022/12/24 11:38:05;;;;;;;;;;;;;;;9.29;100.00;101089.69;5278052;28;19960;-68
2022/12/24 11:40:42;;;;;;;;;;;;;;;9.32;100.00;101090.34;5277804;28;19924;-67
2022/12/24 11:43:15;;;;;;;;;;;;;;;9.33;100.00;101099.16;5276670;28;19932;-67
2022/12/24 11:45:49;;;;;;;;;;;;;;;9.34;100.00;101103.53;5273025;28;19927;-67
2022/12/24 11:48:25;;;;;;;;;;;;;;;9.33;100.00;101113.34;5281068;28;19966;-67
2022/12/24 11:51:01;;;;;;;;;;;;;;;9.34;100.00;101115.06;5264706;28;19963;-67
2022/12/24 11:53:41;;;;;;;;;;;;;;;9.36;100.00;101112.28;5284899;28;19921;-67
2022/12/24 11:56:24;;;;;;;;;;;;;;;9.36;100.00;101098.97;5283581;28;20299;-67
2022/12/24 11:58:58;;;;;;;;;;;;;;;9.38;100.00;101108.56;5278460;28;19924;-67
2022/12/24 12:02:01;;;;;;;;;;;;;;;9.41;100.00;101104.81;5283796;28;20066;-67
2022/12/24 12:04:34;;;;;;;;;;;;;;;9.42;100.00;101095.91;5276746;28;20315;-67
2022/12/24 12:07:12;;;;;;;;;;;;;;;9.42;100.00;101101.22;5275547;28;19959;-66
2022/12/24 12:09:49;;;;;;;;;;;;;;;9.39;100.00;101102.25;5277935;28;19920;-67
2022/12/24 12:12:23;;;;;;;;;;;;;;;9.37;100.00;101106.84;5270624;28;19997;-67
2022/12/24 12:15:03;;;;;;;;;;;;;;;9.35;100.00;101108.75;5265818;28;19935;-67
2022/12/24 12:17:38;;;;;;;;;;;;;;;9.34;100.00;101114.19;5280950;28;19928;-66
2022/12/24 12:20:15;;;;;;;;;;;;;;;9.31;100.00;101101.94;5272413;28;20031;-66
2022/12/24 12:23:07;;;;;;;;;;;;;;;9.31;100.00;101109.06;5290147;28;19923;-66
2022/12/24 12:25:50;;;;;;;;;;;;;;;9.28;100.00;101106.59;5276200;28;19924;-66
2022/12/24 12:28:27;;;;;;;;;;;;;;;9.26;100.00;101121.84;5271644;28;20449;-66
2022/12/24 12:31:02;;;;;;;;;;;;;;;9.24;100.00;101124.59;5281456;28;19924;-66
2022/12/24 12:33:38;;;;;;;;;;;;;;;9.22;100.00;101127.38;5291522;28;19994;-67
2022/12/24 12:36:11;;;;;;;;;;;;;;;9.21;100.00;101125.66;5281014;28;19946;-66
2022/12/24 12:38:43;;;;;;;;;;;;;;;9.20;100.00;101137.28;5284399;28;19919;-67
2022/12/24 12:41:22;;;;;;;;;;;;;;;9.21;100.00;101128.31;5278846;28;19935;-67
2022/12/24 12:43:54;;;;;;;;;;;;;;;9.23;100.00;101131.72;5273100;28;20757;-67
2022/12/24 12:46:37;;;;;;;;;;;;;;;9.26;100.00;101129.81;5283711;28;19920;-66
2022/12/24 12:49:24;;;;;;;;;;;;;;;9.29;100.00;101140.28;5292139;28;19925;-67
2022/12/24 12:51:55;;;;;;;;;;;;;;;9.33;100.00;101134.63;5272626;28;19915;-67
2022/12/24 12:54:26;;;;;;;;;;;;;;;9.36;100.00;101146.91;5281956;28;20298;-66
2022/12/24 12:57:03;;;;;;;;;;;;;;;9.35;100.00;101148.69;5280511;28;20329;-67
2022/12/24 12:59:43;;;;;;;;;;;;;;;9.33;100.00;101147.09;5281157;28;20297;-66
2022/12/24 13:02:29;;;;;;;;;;;;;;;9.28;100.00;101151.88;5283344;28;19924;-67
2022/12/24 13:05:03;;;;;;;;;;;;;;;9.23;100.00;101149.53;5283106;28;19956;-66
2022/12/24 13:07:43;;;;;;;;;;;;;;;9.17;100.00;101149.94;5280011;28;19916;-66
2022/12/24 13:10:24;;;;;;;;;;;;;;;9.14;100.00;101152.78;5283643;28;19993;-66
2022/12/24 13:12:57;;;;;;;;;;;;;;;9.09;100.00;101150.44;5290075;28;20382;-66
2022/12/24 13:15:34;;;;;;;;;;;;;;;9.05;100.00;101140.94;5294351;28;20232;-66
2022/12/24 13:18:26;;;;;;;;;;;;;;;9.02;100.00;101144.66;5291174;28;20395;-66
2022/12/24 13:20:57;;;;;;;;;;;;;;;9.02;100.00;101143.81;5273711;28;19921;-66